createdAt,value
2019-05-10T08:36:47.785Z,39.0005
2019-05-10T08:36:56.411Z,38.7564
2019-05-10T08:37:04.839Z,38.6923
2019-05-10T08:37:19.415Z,38.7579
2019-05-10T08:37:36.162Z,38.5702
2019-05-10T08:37:43.255Z,38.4421
2019-05-10T08:37:53.023Z,38.4360
2019-05-10T08:38:02.308Z,38.6328
2019-05-10T08:38:13.089Z,38.5519
2019-05-10T08:38:21.994Z,38.4878
2019-05-10T08:38:31.929Z,38.5092
2019-05-10T08:38:47.174Z,38.5153
2019-05-10T08:39:05.022Z,38.4878
2019-05-10T08:39:10.803Z,38.4955
2019-05-10T08:39:22.210Z,38.4009
2019-05-10T08:39:34.838Z,38.5504
2019-05-10T08:39:49.026Z,38.3169
2019-05-10T08:39:59.610Z,38.3948
2019-05-10T08:40:08.028Z,38.3307
2019-05-10T08:40:19.799Z,38.3078
2019-05-10T08:40:36.835Z,38.2712
2019-05-10T08:40:45.247Z,38.2803
2019-05-10T08:40:53.670Z,38.3032
2019-05-10T08:41:02.760Z,38.3185
2019-05-10T08:41:18.327Z,38.3307
2019-05-10T08:41:26.944Z,38.5229
2019-05-10T08:41:35.370Z,38.3078
2019-05-10T08:41:45.879Z,38.2727
2019-05-10T08:42:03.935Z,38.1704
2019-05-10T08:42:32.150Z,38.1903
2019-05-10T08:42:40.101Z,38.1430
2019-05-10T08:42:45.474Z,38.1720
2019-05-10T08:43:02.853Z,38.1079
2019-05-10T08:43:08.954Z,38.1430
2019-05-10T08:43:19.504Z,38.1201
2019-05-10T08:43:30.823Z,38.1933
2019-05-10T08:43:43.036Z,38.2223
2019-05-10T08:43:52.508Z,38.3047
2019-05-10T08:44:04.603Z,38.1765
2019-05-10T08:44:19.324Z,38.1216
2019-05-10T08:44:27.787Z,38.1765
2019-05-10T08:44:36.205Z,38.0835
2019-05-10T08:44:44.621Z,38.1201
2019-05-10T08:45:03.237Z,38.1201
2019-05-10T08:45:08.933Z,38.2300
2019-05-10T08:45:17.567Z,38.1247
2019-05-10T08:45:25.989Z,38.1018
2019-05-10T08:45:38.982Z,38.0240
2019-05-10T08:46:11.787Z,38.1750
2019-05-10T08:46:28.688Z,38.7655
2019-05-10T08:46:40.929Z,38.1765
2019-05-10T08:46:49.354Z,38.8907
2019-05-10T08:46:57.850Z,40.4730
2019-05-10T08:47:07.741Z,39.9557
2019-05-10T08:47:26.740Z,42.9282
2019-05-10T08:47:35.197Z,43.7324
2019-05-10T08:47:43.648Z,44.0177
2019-05-10T08:48:00.486Z,43.7430
2019-05-10T08:48:07.175Z,43.7064
2019-05-10T08:48:15.774Z,42.0203
2019-05-10T08:48:27.155Z,43.4775
2019-05-10T08:48:41.432Z,37.0397
2019-05-10T08:48:53.616Z,36.3424
2019-05-10T08:49:02.401Z,36.4477
2019-05-10T08:59:14.572Z,38.2895
2019-05-10T08:59:26.584Z,42.0127
2019-05-10T08:59:35.307Z,43.5904
2019-05-10T08:59:43.792Z,39.6506
2019-05-10T09:06:23.265Z,38.4237
2019-05-10T09:06:32.782Z,37.9065
2019-05-10T09:06:42.054Z,37.7646
2019-05-10T09:06:56.004Z,37.8012
2019-05-10T09:07:05.061Z,37.9599
2019-05-10T09:07:13.537Z,37.9965
2019-05-10T09:07:23.268Z,38.8861
2019-05-10T09:07:34.917Z,37.8790
2019-05-10T09:07:46.299Z,38.9487
2019-05-10T09:07:54.784Z,37.8225
2019-05-10T09:08:05.766Z,37.7493
2019-05-10T09:08:19.997Z,37.6043
2019-05-10T09:34:32.357Z,38.6419
2019-05-10T09:34:42.583Z,38.2773
2019-05-10T09:34:54.034Z,38.2361
2019-05-10T09:35:07.876Z,38.2452
2019-05-10T09:35:17.155Z,39.8871
2019-05-10T09:35:25.564Z,38.6526
2019-05-10T09:35:38.863Z,38.2040
2019-05-10T09:35:54.190Z,38.2406
2019-05-10T09:36:03.047Z,38.1674
2019-05-10T09:36:12.473Z,38.0438
2019-05-10T09:36:23.190Z,37.9782
2019-05-10T09:36:36.380Z,38.0209
2019-05-10T09:36:47.007Z,37.9019
2019-05-10T09:36:55.658Z,37.8927
2019-05-10T09:37:08.106Z,37.8546
2019-05-10T09:37:18.430Z,37.8698
2019-05-10T09:37:26.836Z,37.8271
2019-05-10T09:37:35.267Z,37.8286
2019-05-10T09:37:47.594Z,38.3948
2019-05-10T09:37:58.648Z,37.8775
2019-05-10T09:38:07.203Z,38.1491
2019-05-10T09:38:15.647Z,37.9416
2019-05-10T09:38:28.620Z,37.8866
2019-05-10T09:38:40.375Z,38.1201
2019-05-10T09:38:52.659Z,37.9553
2019-05-10T09:39:03.373Z,37.9065
2019-05-10T09:39:17.558Z,37.8424
2019-05-10T09:39:26.305Z,37.9614
2019-05-10T09:39:34.793Z,38.1353
2019-05-10T09:39:43.268Z,37.6761
2019-05-10T09:39:55.488Z,37.7905
2019-05-10T09:40:10.013Z,37.7920
2019-05-10T09:40:21.992Z,37.6410
2019-05-10T09:40:32.747Z,37.4868
2019-05-10T09:41:42.172Z,38.1247
2019-05-10T09:41:53.098Z,37.6867
2019-05-10T09:42:07.874Z,37.6226
2019-05-10T09:42:25.172Z,37.5708
2019-05-10T09:42:37.681Z,37.5357
2019-05-10T09:42:45.488Z,37.5158
2019-05-10T09:42:54.094Z,37.4975
2019-05-10T09:43:07.430Z,37.5250
2019-05-10T09:43:17.282Z,37.4838
2019-05-10T09:43:25.926Z,37.4975
2019-05-10T09:43:34.554Z,37.5006
2019-05-10T09:43:48.759Z,37.5265
2019-05-10T09:43:57.810Z,37.4777
2019-05-10T09:44:06.422Z,37.4380
2019-05-10T09:44:15.031Z,37.4502
2019-05-10T09:44:23.656Z,37.4426
2019-05-10T09:44:33.003Z,37.4380
2019-05-10T09:44:45.614Z,37.4517
2019-05-10T09:44:54.520Z,37.3907
2019-05-10T09:45:03.224Z,37.3632
2019-05-10T09:45:12.834Z,37.3739
2019-05-10T09:45:24.138Z,37.3632
2019-05-10T09:45:32.921Z,37.3907
2019-05-10T09:45:42.387Z,37.3632
2019-05-10T09:45:53.052Z,37.3632
2019-05-10T09:46:02.775Z,37.3510
2019-05-10T09:46:14.032Z,37.3404
2019-05-10T09:46:23.026Z,37.3541
2019-05-10T09:46:32.461Z,37.3281
2019-05-10T09:46:42.196Z,37.3785
2019-05-10T09:46:52.494Z,37.3312
2019-05-10T09:47:03.644Z,37.3648
2019-05-10T09:47:12.563Z,37.6089
2019-05-10T09:47:22.188Z,37.4197
2019-05-10T09:47:33.013Z,37.3785
2019-05-10T09:47:43.389Z,38.7121
2019-05-10T09:47:53.013Z,40.4471
2019-05-10T09:48:02.578Z,39.5758
2019-05-10T09:48:12.100Z,38.4039
2019-05-10T09:48:22.863Z,37.5113
2019-05-10T09:48:33.309Z,37.3465
2019-05-10T09:48:44.674Z,37.2045
2019-05-10T09:48:54.498Z,37.2778
2019-05-10T09:49:15.676Z,37.6120
2019-05-10T09:49:23.351Z,37.6394
2019-05-10T09:49:33.195Z,39.0768
2019-05-10T09:49:46.801Z,42.7848
2019-05-10T09:50:16.807Z,38.5229
2019-05-10T09:50:30.417Z,37.5952
2019-05-10T09:50:47.173Z,37.0840
2019-05-10T09:50:57.222Z,38.1064
2019-05-10T09:51:08.801Z,38.2849
2019-05-10T09:51:25.605Z,38.8907
2019-05-10T10:37:31.347Z,98.0117
2019-05-10T10:37:39.919Z,98.1491
2019-05-10T10:37:48.385Z,98.3291
2019-05-10T10:38:02.666Z,98.3917
2019-05-10T10:38:12.137Z,98.5306
2019-05-10T10:38:20.649Z,98.5794
2019-05-10T10:38:31.270Z,98.6893
2019-05-10T10:38:45.179Z,98.7366
2019-05-10T10:38:54.393Z,98.8785
2019-05-10T10:39:02.900Z,98.9242
2019-05-10T10:39:11.360Z,98.9868
2019-05-10T10:39:22.834Z,99.0433
2019-05-10T10:39:31.666Z,99.1943
2019-05-10T10:39:40.713Z,99.2248
2019-05-10T10:39:49.178Z,99.2615
2019-05-10T10:40:03.043Z,99.3164
2019-05-10T10:40:15.120Z,99.4736
2019-05-10T10:40:27.879Z,99.1608
2019-05-10T10:40:44.120Z,99.1882
2019-05-10T10:40:51.017Z,99.2035
2019-05-10T10:40:59.536Z,99.1989
2019-05-10T10:41:08.355Z,99.2126
2019-05-10T10:41:25.659Z,99.1836
2019-05-10T10:41:31.972Z,99.1791
2019-05-10T10:41:40.508Z,99.2081
2019-05-10T10:41:51.624Z,99.1485
2019-05-10T10:42:02.414Z,99.6963
2019-05-10T10:42:14.910Z,99.5499
2019-05-10T10:42:23.303Z,99.4873
2019-05-10T10:42:31.723Z,99.3576
2019-05-10T10:42:40.119Z,99.2996
2019-05-10T10:42:48.516Z,99.1394
2019-05-10T10:42:57.803Z,99.2889
2019-05-10T10:43:07.502Z,99.7925
2019-05-10T10:43:20.713Z,100.0000
2019-05-10T10:43:29.141Z,100.0000
2019-05-10T10:43:37.548Z,99.8856
2019-05-10T10:43:48.250Z,99.8535
2019-05-10T10:43:58.343Z,99.7253
2019-05-10T10:50:51.212Z,93.9513
2019-05-10T10:50:59.165Z,98.2635
2019-05-10T10:51:08.141Z,99.0372
2019-05-10T10:51:18.187Z,97.4304
2019-05-10T10:51:31.906Z,97.3266
2019-05-10T10:51:41.195Z,94.3694
2019-05-10T10:51:49.757Z,90.8522
2019-05-10T10:51:58.221Z,95.3536
2019-05-10T10:52:11.114Z,96.5759
2019-05-10T10:52:21.094Z,96.6110
2019-05-10T10:52:29.599Z,97.5494
2019-05-10T10:52:38.052Z,97.5006
2019-05-10T10:52:46.493Z,97.1374
2019-05-10T10:52:57.353Z,97.1527
2019-05-10T10:53:07.965Z,97.0428
2019-05-10T10:53:17.911Z,97.6654
2019-05-10T10:53:28.271Z,96.7681
2019-05-10T10:53:36.865Z,96.1852
2019-05-10T10:54:11.941Z,96.2417
2019-05-10T10:54:22.522Z,95.9854
2019-05-10T10:54:37.433Z,96.5530
2019-05-10T10:54:48.190Z,96.2676
2019-05-10T10:54:57.668Z,89.3599
2019-05-10T10:55:11.085Z,91.1513
2019-05-10T10:55:20.755Z,97.6425
2019-05-10T10:55:30.498Z,98.7869
2019-05-10T10:55:48.379Z,99.2630
2019-05-10T10:56:03.539Z,99.4858
2019-05-10T10:56:12.397Z,99.6735
2019-05-10T10:56:20.949Z,99.7574
2019-05-10T10:56:29.436Z,99.8199
2019-05-10T10:56:37.916Z,99.8657
2019-05-10T10:56:48.273Z,99.7940
2019-05-10T10:56:59.337Z,99.5010
2019-05-10T10:57:08.173Z,98.7274
2019-05-10T10:57:18.006Z,97.4319
2019-05-10T10:57:27.932Z,98.0682
2019-05-10T10:57:37.377Z,97.9675
2019-05-10T10:57:48.112Z,96.6980
2019-05-10T10:57:57.752Z,97.8515
2019-05-10T10:58:07.328Z,98.5748
2019-05-10T10:58:18.579Z,98.9868
2019-05-10T10:58:27.679Z,98.3780
2019-05-10T10:58:36.180Z,97.9065
2019-05-10T10:58:44.631Z,97.7234
2019-05-10T10:58:53.131Z,97.2946
2019-05-10T10:59:01.540Z,97.0382
2019-05-10T10:59:09.958Z,97.0184
2019-05-10T10:59:18.427Z,95.8373
2019-05-10T10:59:26.860Z,96.0677
2019-05-10T10:59:37.376Z,95.8877
2019-05-10T10:59:47.506Z,96.1822
2019-05-10T10:59:57.473Z,96.7819
2019-05-10T11:00:07.656Z,96.0525
2019-05-10T11:00:20.388Z,95.7687
2019-05-10T11:00:30.574Z,96.1532
2019-05-10T11:00:39.363Z,96.2417
2019-05-10T11:00:48.205Z,96.3958
2019-05-10T11:00:56.760Z,96.2829
2019-05-10T11:01:10.657Z,95.2010
2019-05-10T11:01:25.139Z,94.4060
2019-05-10T11:01:49.036Z,95.5550
2019-05-10T11:01:56.568Z,47.4769
2019-05-10T11:02:28.884Z,95.1507
2019-05-10T11:02:31.374Z,48.2704
2019-05-10T11:02:33.605Z,48.2704
2019-05-10T11:02:46.821Z,48.2704
2019-05-10T11:02:56.702Z,48.2704
2019-05-10T11:03:05.001Z,48.2704
2019-05-10T11:03:13.301Z,48.2704
2019-05-10T11:03:24.018Z,48.2704
2019-05-10T11:03:35.877Z,48.2704
2019-05-10T11:03:44.174Z,48.2704
2019-05-10T11:03:52.523Z,48.2704
2019-05-10T11:04:03.576Z,48.2704
2019-05-10T11:04:16.399Z,48.2704
2019-05-10T11:04:24.843Z,48.2704
2019-05-10T11:04:33.145Z,48.2704
2019-05-10T11:32:16.029Z,50.2663
